Terminal Aerodrome Forecast
Issued by NWS

Home | Current Version | Previous Version | Text Only | Print | Product List | Glossary On
Versions: 1 2 3 4 5 6 7 8 9 10 11 12 13 14 15 16 17 18 19 20 21 22 23 24 25 26
000
FTUS45 KLKN 222320
TAFEKO
TAF
KEKO 222320Z 2300/2324 28005KT 6SM -RASN VCTS SCT020CB OVC035
      TEMPO 2300/2302 VRB15G25KT 2SM +TSRA OVC015CB
     FM230200 01006KT P6SM -RASN SCT025 OVC045
     FM231000 VRB05KT P6SM -SHSN SCT035 OVC050
     FM231700 28011KT P6SM SCT050=

USA.gov is the U.S. government's official web portal to all federal, state and local government web resources and services.